createdAt,value
2019-03-04T00:01:11.042Z,12.10
2019-03-04T00:03:40.655Z,12.20
2019-03-04T00:06:10.273Z,12.10
2019-03-04T00:08:39.902Z,12.10
2019-03-04T00:11:09.610Z,12.10
2019-03-04T00:13:39.286Z,12.10
2019-03-04T00:16:09.090Z,12.00
2019-03-04T00:18:38.697Z,12.00
2019-03-04T00:21:08.342Z,12.00
2019-03-04T00:23:37.970Z,12.10
2019-03-04T00:26:07.647Z,12.10
2019-03-04T00:28:37.241Z,12.10
2019-03-04T00:31:06.959Z,12.10
2019-03-04T00:33:36.632Z,12.00
2019-03-04T00:36:06.235Z,12.00
2019-03-04T00:38:35.911Z,11.90
2019-03-04T00:41:05.578Z,11.90
2019-03-04T00:43:35.206Z,11.80
2019-03-04T00:46:05.482Z,11.80
2019-03-04T00:48:35.070Z,11.80
2019-03-04T00:51:05.654Z,11.80
2019-03-04T00:53:35.518Z,11.80
2019-03-04T00:56:05.186Z,11.80
2019-03-04T00:58:34.801Z,11.90
2019-03-04T01:01:04.582Z,11.80
2019-03-04T01:03:34.234Z,11.80
2019-03-04T01:06:05.074Z,11.80
2019-03-04T01:08:34.781Z,11.80
2019-03-04T01:11:06.166Z,11.80
2019-03-04T01:13:35.849Z,11.80
2019-03-04T01:16:05.728Z,11.90
2019-03-04T01:18:35.405Z,11.80
2019-03-04T01:21:05.198Z,11.80
2019-03-04T01:23:34.817Z,11.90
2019-03-04T01:26:04.504Z,11.80
2019-03-04T01:28:34.102Z,11.80
2019-03-04T01:31:03.734Z,11.90
2019-03-04T01:33:33.387Z,11.90
2019-03-04T01:36:03.078Z,11.90
2019-03-04T01:38:32.661Z,11.90
2019-03-04T01:41:02.274Z,11.80
2019-03-04T01:43:31.874Z,11.90
2019-03-04T01:46:01.470Z,11.90
2019-03-04T01:48:31.105Z,11.90
2019-03-04T01:51:00.710Z,11.80
2019-03-04T01:53:30.331Z,11.70
2019-03-04T01:55:59.939Z,11.60
2019-03-04T01:58:29.537Z,11.50
2019-03-04T02:00:59.231Z,11.40
2019-03-04T02:03:29.812Z,11.30
2019-03-04T02:05:59.402Z,11.30
2019-03-04T02:08:29.002Z,11.30
2019-03-04T02:10:58.634Z,11.30
2019-03-04T02:13:28.237Z,11.30
2019-03-04T02:15:57.843Z,11.40
2019-03-04T02:18:27.453Z,11.30
2019-03-04T02:20:57.052Z,11.30
2019-03-04T02:23:26.682Z,11.30
2019-03-04T02:26:26.130Z,11.30
2019-03-04T02:28:56.206Z,11.40
2019-03-04T02:31:25.805Z,11.50
2019-03-04T02:33:55.420Z,11.50
2019-03-04T02:36:25.106Z,11.50
2019-03-04T02:38:54.714Z,11.50
2019-03-04T02:41:24.357Z,11.50
2019-03-04T02:43:55.036Z,11.50
2019-03-04T02:46:24.670Z,11.50
2019-03-04T02:48:54.265Z,11.50
2019-03-04T02:51:23.966Z,11.50
2019-03-04T02:53:53.695Z,11.50
2019-03-04T02:56:23.293Z,11.50
2019-03-04T02:58:52.955Z,11.40
2019-03-04T03:01:22.637Z,11.50
2019-03-04T03:03:52.252Z,11.50
2019-03-04T03:06:21.887Z,11.50
2019-03-04T03:08:51.496Z,11.50
2019-03-04T03:11:22.087Z,11.50
2019-03-04T03:13:51.699Z,11.50
2019-03-04T03:16:21.393Z,11.50
2019-03-04T03:18:51.019Z,11.60
2019-03-04T03:21:20.660Z,11.60
2019-03-04T03:23:50.290Z,11.60
2019-03-04T03:26:19.910Z,11.60
2019-03-04T03:28:49.534Z,11.50
2019-03-04T03:31:19.120Z,11.50
2019-03-04T03:33:48.745Z,11.50
2019-03-04T03:36:18.350Z,11.50
2019-03-04T03:38:47.971Z,11.40
2019-03-04T03:41:17.705Z,11.40
2019-03-04T03:43:47.327Z,11.30
2019-03-04T03:46:16.941Z,11.30
2019-03-04T03:48:46.551Z,11.30
2019-03-04T03:51:16.163Z,11.30
2019-03-04T03:53:45.775Z,11.30
2019-03-04T03:56:15.518Z,11.30
2019-03-04T03:58:45.106Z,11.30
2019-03-04T04:01:14.712Z,11.30
2019-03-04T04:03:44.390Z,11.30
2019-03-04T04:06:14.006Z,11.30
2019-03-04T04:08:43.614Z,11.20
2019-03-04T04:11:13.238Z,11.20
2019-03-04T04:13:42.858Z,11.20
2019-03-04T04:16:12.459Z,11.20
2019-03-04T04:18:42.111Z,11.20
2019-03-04T04:21:13.071Z,11.20
2019-03-04T04:23:43.367Z,11.10
2019-03-04T04:26:21.932Z,10.40
2019-03-04T04:29:02.158Z,9.90
2019-03-04T04:31:32.748Z,9.40
2019-03-04T04:34:02.387Z,9.10
2019-03-04T04:36:31.983Z,8.90
2019-03-04T04:39:01.708Z,8.80
2019-03-04T04:41:33.060Z,8.80
2019-03-04T04:44:02.671Z,8.70
2019-03-04T04:46:52.255Z,8.70
2019-03-04T04:49:22.606Z,8.70
2019-03-04T04:51:52.213Z,8.70
2019-03-04T04:54:21.841Z,8.70
2019-03-04T04:56:51.463Z,8.60
2019-03-04T04:59:21.088Z,8.70
2019-03-04T05:01:50.717Z,8.70
2019-03-04T05:04:20.342Z,8.70
2019-03-04T05:06:49.958Z,8.70
2019-03-04T05:09:19.554Z,8.70
2019-03-04T05:11:49.191Z,8.60
2019-03-04T05:14:18.894Z,8.70
2019-03-04T05:16:48.525Z,8.70
2019-03-04T05:19:18.130Z,8.70
2019-03-04T05:21:47.749Z,8.70
2019-03-04T05:24:18.441Z,8.70
2019-03-04T05:26:48.082Z,8.80
2019-03-04T05:29:17.902Z,8.80
2019-03-04T05:31:47.515Z,8.70
2019-03-04T05:34:17.183Z,8.70
2019-03-04T05:36:46.802Z,8.50
2019-03-04T05:39:16.512Z,8.40
2019-03-04T05:41:46.118Z,8.40
2019-03-04T05:44:15.734Z,8.30
2019-03-04T05:46:47.216Z,8.20
2019-03-04T05:49:27.740Z,8.20
2019-03-04T05:51:59.162Z,8.20
2019-03-04T05:54:32.351Z,8.20
2019-03-04T05:57:07.965Z,8.10
2019-03-04T05:59:41.964Z,8.10
2019-03-04T06:02:18.155Z,8.10
2019-03-04T06:04:54.855Z,8.10
2019-03-04T06:08:04.110Z,8.10
2019-03-04T06:10:38.036Z,8.00
2019-03-04T06:13:14.810Z,8.00
2019-03-04T06:15:44.702Z,8.00
2019-03-04T06:18:14.303Z,8.10
2019-03-04T06:20:43.910Z,8.20
2019-03-04T06:23:13.551Z,8.20
2019-03-04T06:25:43.262Z,8.30
2019-03-04T06:28:12.874Z,8.30
2019-03-04T06:30:42.480Z,8.30
2019-03-04T06:33:12.114Z,8.30
2019-03-04T06:35:42.730Z,8.30
2019-03-04T06:38:12.332Z,8.20
2019-03-04T06:40:41.950Z,8.20
2019-03-04T06:43:11.853Z,8.20
2019-03-04T06:45:41.537Z,8.10
2019-03-04T06:48:11.169Z,8.20
2019-03-04T06:50:51.567Z,8.20
2019-03-04T06:53:36.037Z,8.20
2019-03-04T06:56:35.942Z,8.20
2019-03-04T06:59:10.151Z,8.20
2019-03-04T07:01:46.718Z,8.10
2019-03-04T07:04:24.522Z,8.00
2019-03-04T07:06:54.150Z,8.00
2019-03-04T07:09:23.762Z,7.70
2019-03-04T07:11:54.158Z,7.50
2019-03-04T07:14:23.840Z,7.10
2019-03-04T07:16:53.881Z,6.80
2019-03-04T07:19:25.168Z,6.60
2019-03-04T07:21:54.770Z,6.50
2019-03-04T07:24:24.470Z,6.40
2019-03-04T07:26:54.108Z,6.30
2019-03-04T07:29:23.722Z,6.30
2019-03-04T07:31:53.504Z,6.30
2019-03-04T07:34:23.106Z,6.30
2019-03-04T07:36:52.727Z,6.20
2019-03-04T07:39:22.422Z,6.20
2019-03-04T07:41:53.798Z,6.20
2019-03-04T07:44:23.512Z,6.30
2019-03-04T07:46:53.109Z,6.20
2019-03-04T07:49:22.832Z,6.20
2019-03-04T07:51:52.526Z,6.20
2019-03-04T07:54:22.201Z,6.20
2019-03-04T07:56:51.890Z,6.20
2019-03-04T07:59:21.501Z,6.20
2019-03-04T08:01:51.111Z,6.10
2019-03-04T08:04:20.730Z,6.10
2019-03-04T08:06:50.346Z,6.10
2019-03-04T08:09:55.419Z,6.10
2019-03-04T08:13:12.432Z,6.20
2019-03-04T08:15:47.727Z,6.20
2019-03-04T08:18:17.442Z,6.20
2019-03-04T08:20:47.218Z,6.30
2019-03-04T08:23:16.978Z,6.30
2019-03-04T08:25:46.684Z,6.40
2019-03-04T08:28:16.638Z,6.40
2019-03-04T08:30:46.315Z,6.50
2019-03-04T08:33:16.249Z,6.50
2019-03-04T08:35:45.923Z,6.60
2019-03-04T08:38:16.715Z,6.60
2019-03-04T08:40:46.325Z,6.60
2019-03-04T08:43:15.934Z,6.60
2019-03-04T08:45:45.597Z,6.70
2019-03-04T08:48:15.195Z,6.70
2019-03-04T08:50:44.882Z,6.70
2019-03-04T08:53:14.537Z,6.80
2019-03-04T08:55:45.450Z,7.00
2019-03-04T08:58:15.326Z,7.10
2019-03-04T09:00:45.017Z,7.20
2019-03-04T09:03:14.629Z,7.40
2019-03-04T09:05:44.317Z,7.40
2019-03-04T09:08:13.978Z,7.40
2019-03-04T09:10:43.637Z,7.40
2019-03-04T09:13:13.267Z,7.50
2019-03-04T09:15:43.065Z,7.60
2019-03-04T09:18:12.766Z,7.60
2019-03-04T09:20:42.395Z,7.70
2019-03-04T09:23:12.007Z,7.80
2019-03-04T09:25:44.994Z,8.10
2019-03-04T09:28:14.594Z,8.30
2019-03-04T09:30:44.463Z,8.40
2019-03-04T09:33:14.127Z,8.30
2019-03-04T09:35:43.748Z,8.20
2019-03-04T09:38:13.351Z,8.10
2019-03-04T09:40:43.046Z,8.00
2019-03-04T09:43:12.670Z,8.00
2019-03-04T09:45:42.488Z,8.00
2019-03-04T09:48:12.196Z,8.00
2019-03-04T09:50:41.994Z,8.00
2019-03-04T09:53:11.659Z,8.10
2019-03-04T09:55:41.286Z,8.10
2019-03-04T09:58:11.953Z,8.10
2019-03-04T10:01:05.522Z,8.10
2019-03-04T10:04:12.324Z,8.00
2019-03-04T10:07:25.512Z,7.90
2019-03-04T10:10:33.984Z,7.90
2019-03-04T10:13:53.709Z,8.00
2019-03-04T10:16:47.622Z,8.10
2019-03-04T10:20:13.306Z,8.40
2019-03-04T10:23:41.582Z,8.70
2019-03-04T10:26:28.675Z,8.80
2019-03-04T10:29:05.264Z,8.80
2019-03-04T10:32:09.640Z,8.90
2019-03-04T10:35:12.963Z,8.90
2019-03-04T10:38:06.556Z,9.00
2019-03-04T10:41:13.571Z,9.10
2019-03-04T10:44:23.518Z,9.10
2019-03-04T10:47:00.589Z,9.20
2019-03-04T10:49:31.292Z,9.20
2019-03-04T10:52:01.018Z,9.20
2019-03-04T10:54:30.631Z,9.00
2019-03-04T10:57:00.241Z,8.80
2019-03-04T10:59:29.977Z,8.70
2019-03-04T11:01:59.602Z,8.70
2019-03-04T11:04:29.280Z,8.70
2019-03-04T11:06:58.900Z,8.60
2019-03-04T11:09:28.538Z,8.70
2019-03-04T11:11:58.229Z,8.70
2019-03-04T11:14:27.829Z,8.70
2019-03-04T11:16:57.535Z,8.70
2019-03-04T11:19:27.143Z,8.80
2019-03-04T11:21:56.878Z,8.80
2019-03-04T11:24:26.563Z,8.80
2019-03-04T11:26:56.162Z,8.80
2019-03-04T11:29:25.861Z,8.90
2019-03-04T11:31:55.449Z,8.90
2019-03-04T11:34:25.082Z,8.90
2019-03-04T11:36:54.782Z,8.90
2019-03-04T11:39:48.374Z,8.90
2019-03-04T11:42:18.946Z,8.90
2019-03-04T11:44:48.570Z,8.90
2019-03-04T11:47:21.914Z,8.80
2019-03-04T11:49:53.350Z,8.90
2019-03-04T11:52:23.264Z,9.00
2019-03-04T11:54:53.750Z,9.00
2019-03-04T11:57:24.542Z,9.10
2019-03-04T11:59:55.222Z,9.20
2019-03-04T12:02:28.186Z,9.30
2019-03-04T12:04:57.880Z,9.30
2019-03-04T12:07:27.512Z,9.30
2019-03-04T12:09:57.130Z,9.30
2019-03-04T12:12:26.846Z,9.20
2019-03-04T12:14:56.449Z,9.30
2019-03-04T12:17:26.230Z,9.40
2019-03-04T12:20:15.421Z,9.50
2019-03-04T12:22:45.203Z,9.50
2019-03-04T12:25:15.301Z,9.40
2019-03-04T12:27:45.111Z,9.40
2019-03-04T12:30:17.470Z,9.30
2019-03-04T12:32:47.231Z,9.20
2019-03-04T12:35:17.737Z,9.10
2019-03-04T12:37:47.631Z,9.00
2019-03-04T12:40:17.779Z,9.00
2019-03-04T12:42:47.790Z,8.90
2019-03-04T12:45:19.125Z,8.80
2019-03-04T12:47:48.985Z,8.90
2019-03-04T12:50:21.803Z,9.00
2019-03-04T12:52:51.924Z,9.10
2019-03-04T12:55:22.049Z,9.20
2019-03-04T12:57:52.166Z,9.20
2019-03-04T13:00:22.702Z,9.10
2019-03-04T13:02:57.436Z,9.20
2019-03-04T13:05:30.010Z,9.20
2019-03-04T13:08:05.741Z,9.20
2019-03-04T13:10:45.823Z,9.30
2019-03-04T13:13:28.250Z,9.40
2019-03-04T13:16:09.045Z,9.40
2019-03-04T13:18:45.571Z,9.30
2019-03-04T13:21:15.859Z,9.30
2019-03-04T13:23:53.391Z,9.40
2019-03-04T13:26:30.858Z,9.40
2019-03-04T13:29:07.567Z,9.40
2019-03-04T13:31:41.864Z,9.40
2019-03-04T13:34:15.196Z,9.30
2019-03-04T13:36:45.294Z,9.30
2019-03-04T13:39:19.566Z,9.30
2019-03-04T13:41:50.384Z,9.40
2019-03-04T13:44:28.404Z,9.30
2019-03-04T13:46:58.945Z,9.30
2019-03-04T13:49:29.430Z,9.30
2019-03-04T13:52:04.073Z,9.30
2019-03-04T13:54:34.070Z,9.30
2019-03-04T13:57:10.572Z,9.30
2019-03-04T13:59:45.294Z,9.30
2019-03-04T14:02:26.271Z,9.30
2019-03-04T14:05:04.941Z,9.20
2019-03-04T14:07:43.818Z,9.10
2019-03-04T14:10:18.304Z,9.00
2019-03-04T14:12:48.452Z,8.90
2019-03-04T14:15:26.795Z,8.90
2019-03-04T14:17:56.437Z,8.90
2019-03-04T14:20:26.078Z,8.90
2019-03-04T14:22:57.930Z,8.90
2019-03-04T14:25:34.084Z,8.90
2019-03-04T14:28:17.679Z,8.80
2019-03-04T14:30:47.828Z,8.80
2019-03-04T14:33:24.947Z,8.80
2019-03-04T14:35:59.006Z,8.90
2019-03-04T14:38:37.991Z,8.90
2019-03-04T14:41:14.217Z,8.90
2019-03-04T14:43:50.192Z,9.00
2019-03-04T14:46:25.707Z,9.10
2019-03-04T14:49:04.355Z,9.10
2019-03-04T14:51:34.725Z,9.10
2019-03-04T14:54:05.520Z,9.10
2019-03-04T14:56:36.113Z,9.00
2019-03-04T14:59:10.960Z,9.00
2019-03-04T15:01:50.031Z,9.00
2019-03-04T15:04:31.552Z,9.00
2019-03-04T15:07:08.104Z,9.00
2019-03-04T15:09:52.799Z,9.00
2019-03-04T15:12:25.505Z,9.00
2019-03-04T15:15:06.448Z,9.10
2019-03-04T15:17:45.498Z,9.10
2019-03-04T15:20:30.088Z,9.10
2019-03-04T15:23:07.397Z,9.10
2019-03-04T15:25:46.674Z,9.10
2019-03-04T15:28:28.045Z,9.00
2019-03-04T15:31:13.319Z,9.00
2019-03-04T15:33:48.112Z,9.10
2019-03-04T15:36:23.832Z,9.00
2019-03-04T15:38:57.532Z,9.00
2019-03-04T15:41:27.405Z,8.90
2019-03-04T15:43:57.054Z,8.90
2019-03-04T15:46:26.679Z,8.90
2019-03-04T15:48:57.546Z,8.80
2019-03-04T15:51:27.183Z,8.80
2019-03-04T15:53:56.895Z,8.70
2019-03-04T15:56:26.519Z,8.70
2019-03-04T15:58:56.133Z,8.60
2019-03-04T16:01:25.902Z,8.70
2019-03-04T16:03:55.596Z,8.60
2019-03-04T16:06:25.393Z,8.60
2019-03-04T16:08:55.078Z,8.60
2019-03-04T16:11:25.087Z,8.60
2019-03-04T16:13:56.196Z,8.70
2019-03-04T16:16:25.966Z,8.70
2019-03-04T16:18:55.579Z,8.60
2019-03-04T16:21:25.196Z,8.60
2019-03-04T16:23:54.802Z,8.60
2019-03-04T16:26:24.828Z,8.60
2019-03-04T16:28:55.635Z,8.60
2019-03-04T16:31:25.602Z,8.60
2019-03-04T16:33:55.278Z,8.60
2019-03-04T16:36:24.875Z,8.60
2019-03-04T16:38:54.685Z,8.60
2019-03-04T16:41:24.294Z,8.60
2019-03-04T16:43:54.097Z,8.50
2019-03-04T16:46:23.790Z,8.50
2019-03-04T16:48:53.762Z,8.50
2019-03-04T16:51:23.433Z,8.50
2019-03-04T16:53:53.079Z,8.50
2019-03-04T16:56:22.698Z,8.50
2019-03-04T16:58:52.329Z,8.50
2019-03-04T17:01:22.003Z,8.40
2019-03-04T17:03:51.627Z,8.50
2019-03-04T17:06:21.252Z,8.50
2019-03-04T17:08:50.864Z,8.50
2019-03-04T17:11:20.489Z,8.40
2019-03-04T17:13:50.194Z,8.40
2019-03-04T17:16:19.799Z,8.30
2019-03-04T17:18:49.602Z,8.30
2019-03-04T17:21:19.372Z,8.30
2019-03-04T17:23:49.052Z,8.20
2019-03-04T17:26:18.729Z,8.20
2019-03-04T17:28:48.354Z,8.10
2019-03-04T17:31:18.162Z,8.10
2019-03-04T17:33:47.782Z,8.10
2019-03-04T17:36:17.398Z,8.00
2019-03-04T17:38:47.005Z,8.00
2019-03-04T17:41:16.663Z,8.00
2019-03-04T17:43:46.271Z,8.00
2019-03-04T17:46:15.942Z,8.00
2019-03-04T17:48:46.629Z,8.00
2019-03-04T17:51:16.246Z,8.00
2019-03-04T17:53:45.941Z,8.00
2019-03-04T17:56:16.182Z,8.00
2019-03-04T17:58:45.870Z,8.00
2019-03-04T18:01:15.576Z,8.00
2019-03-04T18:03:45.413Z,8.00
2019-03-04T18:06:15.031Z,8.00
2019-03-04T18:08:44.701Z,8.00
2019-03-04T18:11:14.298Z,8.00
2019-03-04T18:13:43.958Z,8.00
2019-03-04T18:16:13.735Z,8.00
2019-03-04T18:18:43.335Z,8.00
2019-03-04T18:21:13.358Z,8.00
2019-03-04T18:23:43.110Z,8.00
2019-03-04T18:26:26.300Z,8.10
2019-03-04T18:29:40.210Z,8.10
2019-03-04T18:32:42.126Z,8.10
2019-03-04T18:36:07.231Z,8.10
2019-03-04T18:39:01.830Z,8.10
2019-03-04T18:41:52.618Z,8.10
2019-03-04T18:44:46.610Z,8.00
2019-03-04T18:47:30.874Z,8.00
2019-03-04T18:50:00.586Z,7.90
2019-03-04T18:52:30.217Z,7.80
2019-03-04T18:54:59.830Z,7.80
2019-03-04T18:57:29.438Z,7.80
2019-03-04T18:59:59.206Z,7.70
2019-03-04T19:02:28.815Z,7.70
2019-03-04T19:04:58.590Z,7.70
2019-03-04T19:07:29.386Z,7.60
2019-03-04T19:09:59.101Z,7.60
2019-03-04T19:12:28.790Z,7.70
2019-03-04T19:14:58.646Z,7.70
2019-03-04T19:17:33.512Z,7.70
2019-03-04T19:19:59.869Z,7.70
2019-03-04T19:22:29.482Z,7.70
2019-03-04T19:24:59.119Z,7.60
2019-03-04T19:27:28.931Z,7.60
2019-03-04T19:29:58.530Z,7.60
2019-03-04T19:32:28.147Z,7.70
2019-03-04T19:34:57.754Z,7.70
2019-03-04T19:37:27.436Z,7.80
2019-03-04T19:39:57.021Z,7.80
2019-03-04T19:42:26.655Z,7.80
2019-03-04T19:44:56.274Z,7.90
2019-03-04T19:47:25.929Z,7.90
2019-03-04T19:49:55.573Z,7.80
2019-03-04T19:52:25.209Z,7.80
2019-03-04T19:54:54.866Z,7.80
2019-03-04T19:57:24.646Z,7.80
2019-03-04T19:59:54.378Z,7.80
2019-03-04T20:02:25.316Z,7.80
2019-03-04T20:04:55.089Z,7.80
2019-03-04T20:07:24.770Z,7.80
2019-03-04T20:09:54.542Z,7.80
2019-03-04T20:12:25.217Z,7.80
2019-03-04T20:14:56.170Z,7.70
2019-03-04T20:17:27.290Z,7.70
2019-03-04T20:19:57.931Z,7.80
2019-03-04T20:22:27.530Z,7.80
2019-03-04T20:24:57.141Z,7.80
2019-03-04T20:27:26.823Z,7.90
2019-03-04T20:29:56.422Z,7.90
2019-03-04T20:32:26.104Z,8.00
2019-03-04T20:34:56.782Z,8.00
2019-03-04T20:37:27.748Z,8.00
2019-03-04T20:39:57.752Z,8.00
2019-03-04T20:42:27.414Z,8.10
2019-03-04T20:44:57.051Z,8.10
2019-03-04T20:47:26.706Z,8.10
2019-03-04T20:49:56.327Z,8.10
2019-03-04T20:52:25.995Z,8.20
2019-03-04T20:54:55.614Z,8.20
2019-03-04T20:57:25.250Z,8.20
2019-03-04T20:59:54.908Z,8.20
2019-03-04T21:02:24.923Z,8.20
2019-03-04T21:04:54.633Z,8.30
2019-03-04T21:07:24.342Z,8.20
2019-03-04T21:09:54.026Z,8.30
2019-03-04T21:12:23.638Z,8.20
2019-03-04T21:14:53.257Z,8.20
2019-03-04T21:17:22.973Z,8.20
2019-03-04T21:19:52.637Z,8.20
2019-03-04T21:22:22.302Z,8.20
2019-03-04T21:24:51.923Z,8.20
2019-03-04T21:27:22.166Z,8.10
2019-03-04T21:30:02.594Z,8.10
2019-03-04T21:32:47.578Z,8.00
2019-03-04T21:35:44.737Z,8.00
2019-03-04T21:38:14.494Z,8.00
2019-03-04T21:40:56.934Z,7.90
2019-03-04T21:43:32.889Z,7.90
2019-03-04T21:46:56.232Z,7.90
2019-03-04T21:49:27.522Z,7.80
2019-03-04T21:52:39.142Z,7.80
2019-03-04T21:55:13.050Z,7.80
2019-03-04T21:58:07.965Z,7.70
2019-03-04T22:00:40.396Z,7.70
2019-03-04T22:03:13.344Z,7.70
2019-03-04T22:05:50.250Z,7.60
2019-03-04T22:08:14.625Z,7.70
2019-03-04T22:10:44.547Z,7.60
2019-03-04T22:13:14.230Z,7.60
2019-03-04T22:15:43.984Z,7.60
2019-03-04T22:18:13.819Z,7.60
2019-03-04T22:20:43.502Z,7.60
2019-03-04T22:23:14.279Z,7.60
2019-03-04T22:25:45.074Z,7.50
2019-03-04T22:28:15.359Z,7.50
2019-03-04T22:30:44.954Z,7.50
2019-03-04T22:33:14.700Z,7.50
2019-03-04T22:35:44.481Z,7.50
2019-03-04T22:38:14.158Z,7.50
2019-03-04T22:40:43.809Z,7.50
2019-03-04T22:43:13.432Z,7.50
2019-03-04T22:45:43.035Z,7.40
2019-03-04T22:48:12.668Z,7.40
2019-03-04T22:50:42.303Z,7.40
2019-03-04T22:53:11.952Z,7.40
2019-03-04T22:55:41.726Z,7.40
2019-03-04T22:58:11.323Z,7.40
2019-03-04T23:01:32.772Z,7.40
2019-03-04T23:04:23.180Z,7.40
2019-03-04T23:07:07.374Z,7.40
2019-03-04T23:09:50.773Z,7.40
2019-03-04T23:12:24.190Z,7.40
2019-03-04T23:14:54.108Z,7.30
2019-03-04T23:17:24.759Z,7.30
2019-03-04T23:19:54.378Z,7.30
2019-03-04T23:22:24.174Z,7.30
2019-03-04T23:24:53.801Z,7.30
2019-03-04T23:27:23.444Z,7.30
2019-03-04T23:29:53.048Z,7.30
2019-03-04T23:32:22.646Z,7.30
2019-03-04T23:34:52.454Z,7.30
2019-03-04T23:37:22.091Z,7.30
2019-03-04T23:39:51.704Z,7.30
2019-03-04T23:42:21.319Z,7.30
2019-03-04T23:44:50.949Z,7.30
2019-03-04T23:47:20.545Z,7.30
2019-03-04T23:50:21.138Z,7.30
2019-03-04T23:52:50.898Z,7.30
2019-03-04T23:55:20.616Z,7.30
2019-03-04T23:57:50.236Z,7.30
